Flight Track Log - Related Links

Times and Time Zones

All times are in EDT time to prevent confusion due to time zone crossing. See the SVA1457 flight status page for this flight to view local times or setup timezone preferences in your user account.

Time Position Orientation Groundspeed Altitude Reporting Facility
EDT Latitude Longitude Course Direction KTS MPH feet Rate Location/Type
Wed 05:58:00 AM 24.9443 46.3249 268° West  Level Estimated
Wed 05:59:00 AM 24.9408 46.2314 268° West  Level Estimated
Wed 06:00:00 AM 24.9373 46.1379 268° West  Level Estimated
Wed 06:01:00 AM 24.9337 46.0445 268° West  Level Estimated
Wed 06:02:00 AM 24.9301 45.9510 268° West  Level Estimated
Wed 06:03:00 AM 24.9263 45.8576 268° West  Level Estimated
Wed 06:04:00 AM 24.9226 45.7642 267° West  Level Estimated
Wed 06:05:00 AM 24.9188 45.6707 267° West  Level Estimated
Wed 06:06:00 AM 24.9149 45.5773 267° West  Level Estimated
Wed 06:07:00 AM 24.9109 45.4839 267° West  Level Estimated
Wed 06:08:00 AM 24.9069 45.3905 267° West  Level Estimated
Wed 06:09:00 AM 24.9029 45.2971 267° West  Level Estimated
Wed 06:10:00 AM 24.8988 45.2037 267° West  Level Estimated
Wed 06:11:00 AM 24.8946 45.1103 267° West  Level Estimated
Wed 06:12:00 AM 24.8904 45.0169 267° West  Level Estimated
Wed 06:13:00 AM 24.8861 44.9235 267° West  Level Estimated
Wed 06:14:00 AM 24.8817 44.8301 267° West  Level Estimated
Wed 06:15:00 AM 24.8773 44.7368 267° West  Level Estimated
Wed 06:16:00 AM 24.8728 44.6434 267° West  Level Estimated
Wed 06:17:00 AM 24.8683 44.5500 267° West  Level Estimated
Wed 06:18:00 AM 24.8637 44.4567 267° West  Level Estimated
Wed 06:19:00 AM 24.8591 44.3633 267° West  Level Estimated
Wed 06:20:00 AM 24.8544 44.2700 267° West  Level Estimated
Wed 06:21:00 AM 24.8496 44.1767 267° West  Level Estimated
Wed 06:22:00 AM 24.8448 44.0834 267° West  Level Estimated
Wed 06:23:00 AM 24.8400 43.9901 267° West  Level Estimated
Wed 06:24:00 AM 24.8350 43.8967 267° West  Level Estimated
Wed 06:25:00 AM 24.8300 43.8035 267° West  Level Estimated
Wed 06:26:00 AM 24.8250 43.7102 267° West  Level Estimated
Wed 06:27:00 AM 24.8199 43.6169 267° West  Level Estimated
Wed 06:28:00 AM 24.8147 43.5236 267° West  Level Estimated
Wed 06:29:00 AM 24.8095 43.4303 266° West  Level Estimated
Wed 06:30:00 AM 24.8042 43.3371 266° West  Level Estimated
Wed 06:31:00 AM 24.7989 43.2438 266° West  Level Estimated
Wed 06:32:00 AM 24.7935 43.1506 266° West  Level Estimated
Wed 06:33:00 AM 24.7881 43.0573 266° West  Level Estimated
Wed 06:34:00 AM 24.7826 42.9641 266° West  Level Estimated
Wed 06:35:00 AM 24.7770 42.8709 266° West  Level Estimated
Wed 06:36:00 AM 24.7714 42.7777 266° West  Level Estimated
Wed 06:37:00 AM 24.7657 42.6845 266° West  Level Estimated
Wed 06:38:00 AM 24.7600 42.5913 266° West  Level Estimated
Wed 06:39:00 AM 24.7542 42.4981 266° West  Level Estimated
Wed 06:40:00 AM 24.7483 42.4049 266° West  Level Estimated
Wed 06:41:00 AM 24.7424 42.3118 266° West  Level Estimated
Wed 06:42:00 AM 24.7364 42.2186 266° West  Level Estimated
Wed 06:43:00 AM 24.7304 42.1255 266° West  Level Estimated
Wed 06:44:00 AM 24.7243 42.0323 266° West  Level Estimated
Wed 06:45:00 AM 24.7182 41.9392 266° West  Level Estimated
Wed 06:46:00 AM 24.7120 41.8461 266° West  Level Estimated
Wed 06:47:00 AM 24.7057 41.7529 266° West  Level Estimated
Wed 06:48:00 AM 24.6994 41.6599 266° West  Level Estimated
Wed 06:49:00 AM 24.6930 41.5667 266° West  Level Estimated
Wed 06:50:00 AM 24.6866 41.4737 266° West  Level Estimated
Wed 06:51:00 AM 24.6801 41.3806 266° West  Level Estimated
Wed 06:52:00 AM 24.6736 41.2875 266° West  Level Estimated
Wed 06:53:00 AM 24.6670 41.1945 266° West  Level Estimated
Wed 06:54:00 AM 24.6603 41.1014 266° West  Level Estimated
Wed 06:55:00 AM 24.6536 41.0084 265° West  Level Estimated
Wed 06:56:00 AM 24.6468 40.9154 265° West  Level Estimated
Wed 06:57:00 AM 24.6400 40.8224 265° West  Level Estimated
Wed 06:58:00 AM 24.6331 40.7294 265° West  Level Estimated
Wed 06:59:00 AM 24.6262 40.6364 265° West  Level Estimated
Wed 07:00:00 AM 24.6192 40.5434 265° West  Level Estimated
Wed 07:01:00 AM 24.6121 40.4504 265° West  Level Estimated
Wed 07:02:00 AM 24.6050 40.3574 265° West  Level Estimated
Wed 07:03:00 AM 24.5978 40.2645 265° West  Level Estimated
Wed 07:04:00 AM 24.5906 40.1716 265° West  Level Estimated
Wed 07:05:00 AM 24.5833 40.0786 265° West  Level Estimated
Wed 07:06:00 AM 24.5760 39.9857 265° West  Level Estimated
Wed 07:07:00 AM 24.5686 39.8928 265° West  Level Estimated
Wed 07:08:00 AM 24.5611 39.7999 265° West  Level Estimated
Wed 07:09:00 AM 24.5536 39.7070 265° West  Level Estimated
Wed 07:10:00 AM 24.5534 39.7051 265° West  Level Estimated
Wed 07:11:00 AM 24.5534 39.7051 North  Level Estimated
Wed 07:12:00 AM 24.5534 39.7051 North  Level Estimated
Wed 07:13:00 AM 24.5534 39.7051 North  Level Estimated
Wed 07:14:00 AM 24.5534 39.7051 North  Level Estimated
Wed 07:15:00 AM 24.5534 39.7051 North  Level Estimated

Login

Don't have an account? Register now (free) for customized features, flight alerts, and more!